Monroeville, Indiana
Current Conditions -  °F | °C
As of 6:54 PM on Friday 28 Nov 2014 (Local Time) from KFWA Reporting Station
Overcast Overcast  
Wind Chill: 21°   Ceiling: 12000
Heat Index: 29°   Visibility: 10mi
Dew Point: 21°   Wind: 8mph
Humidity: 72%   Direction: 160°SSE
Pressure: 30.11"   Gusts: NA
Location:  40.97°N, 84.87°W
Report Text: KFWA 282354Z 16007KT 10SM OVC120 M02/M06 A3011 RMK AO2 SLP205 60000 T10171061 11006 21022 55014
Loading
Personal Weather Stations






























Interactive Weather Map New forecast layout! Learn more

10-Day Weather Forecast

Advertisements
Track Severe Weather on mobile